createdAt,value
2022-11-21T00:02:49.004Z,95.64
2022-11-21T00:07:48.984Z,94.59
2022-11-21T00:12:48.905Z,94.34
2022-11-21T00:17:48.860Z,94.34
2022-11-21T00:22:48.778Z,94.13
2022-11-21T00:27:48.690Z,93.57
2022-11-21T00:32:48.704Z,93.15
2022-11-21T00:37:48.665Z,93.98
2022-11-21T00:42:48.534Z,92.63
2022-11-21T00:47:48.474Z,92.31
2022-11-21T00:52:48.401Z,92.52
2022-11-21T00:57:48.326Z,91.89
2022-11-21T01:02:48.284Z,91.47
2022-11-21T01:07:48.194Z,91.79
2022-11-21T01:12:48.178Z,91.69
2022-11-21T01:17:48.095Z,91.75
2022-11-21T01:22:50.124Z,92.16
2022-11-21T01:27:47.942Z,92.27
2022-11-21T01:32:47.919Z,92.06
2022-11-21T01:37:47.831Z,92.33
2022-11-21T01:42:47.768Z,92.02
2022-11-21T01:47:47.672Z,91.87
2022-11-21T01:52:47.639Z,91.97
2022-11-21T01:57:47.593Z,92.40
2022-11-21T02:02:47.478Z,92.03
2022-11-21T02:07:47.425Z,91.68
2022-11-21T02:12:47.388Z,91.78
2022-11-21T02:17:47.289Z,91.37
2022-11-21T02:22:47.244Z,91.53
2022-11-21T02:27:47.214Z,91.96
2022-11-21T02:32:47.155Z,92.27
2022-11-21T02:37:47.034Z,92.58
2022-11-21T02:42:52.391Z,92.79
2022-11-21T02:47:47.922Z,93.31
2022-11-21T02:52:46.851Z,93.27
2022-11-21T02:57:46.801Z,93.37
2022-11-21T03:02:46.732Z,93.89
2022-11-21T03:07:46.651Z,94.10
2022-11-21T03:12:46.590Z,93.99
2022-11-21T03:17:46.499Z,94.26
2022-11-21T03:22:46.448Z,94.47
2022-11-21T03:27:46.399Z,94.37
2022-11-21T03:32:46.376Z,94.68
2022-11-21T03:37:46.356Z,94.99
2022-11-21T03:42:46.220Z,94.99
2022-11-21T03:47:46.167Z,95.62
2022-11-21T03:52:46.102Z,96.97
2022-11-21T03:57:46.016Z,96.97
2022-11-21T04:02:45.941Z,97.07
2022-11-21T04:07:45.930Z,97.49
2022-11-21T04:12:45.814Z,98.01
2022-11-21T04:17:45.749Z,97.49
2022-11-21T04:22:45.772Z,97.28
2022-11-21T04:27:45.637Z,97.86
2022-11-21T04:32:45.566Z,98.59
2022-11-21T04:37:45.517Z,97.86
2022-11-21T04:42:45.427Z,97.86
2022-11-21T04:47:45.418Z,97.96
2022-11-21T04:52:45.284Z,98.17
2022-11-21T04:57:45.222Z,98.63
2022-11-21T05:02:45.186Z,98.80
2022-11-21T05:07:45.126Z,99.01
2022-11-21T05:12:45.069Z,98.59
2022-11-21T05:17:45.001Z,97.96
2022-11-21T05:22:44.963Z,97.81
2022-11-21T05:27:44.846Z,97.09
2022-11-21T05:32:44.832Z,97.50
2022-11-21T05:37:44.810Z,97.71
2022-11-21T05:42:44.691Z,97.61
2022-11-21T05:47:44.619Z,97.30
2022-11-21T05:52:44.569Z,97.50
2022-11-21T05:57:44.475Z,98.33
2022-11-21T06:02:44.466Z,98.02
2022-11-21T06:07:44.405Z,98.33
2022-11-21T06:12:44.387Z,98.65
2022-11-21T06:17:44.238Z,98.81
2022-11-21T06:22:44.125Z,98.81
2022-11-21T06:27:44.109Z,98.81
2022-11-21T06:32:44.107Z,98.91
2022-11-21T06:37:43.922Z,99.02
2022-11-21T06:42:43.891Z,98.81
2022-11-21T06:47:43.824Z,98.86
2022-11-21T06:52:43.815Z,98.97
2022-11-21T06:57:43.689Z,98.45
2022-11-21T07:02:43.636Z,98.19
2022-11-21T07:07:43.645Z,98.29
2022-11-21T07:12:43.767Z,98.44
2022-11-21T07:17:43.434Z,98.50
2022-11-21T07:22:43.387Z,97.81
2022-11-21T07:27:43.292Z,98.17
2022-11-21T07:32:43.262Z,98.63
2022-11-21T07:37:43.206Z,98.36
2022-11-21T07:42:43.132Z,98.88
2022-11-21T07:47:43.132Z,99.10
2022-11-21T07:52:43.089Z,99.10
2022-11-21T07:57:42.954Z,97.99
2022-11-21T08:02:43.544Z,97.20
2022-11-21T08:07:42.887Z,97.25
2022-11-21T08:12:42.722Z,96.77
2022-11-21T08:17:42.632Z,97.61
2022-11-21T08:22:42.584Z,96.82
2022-11-21T08:27:42.512Z,96.40
2022-11-21T08:32:42.472Z,95.92
2022-11-21T08:37:42.488Z,95.82
2022-11-21T08:42:42.339Z,96.23
2022-11-21T08:47:42.551Z,96.49
2022-11-21T08:52:42.447Z,97.22
2022-11-21T08:57:42.149Z,97.32
2022-11-21T09:02:42.438Z,97.74
2022-11-21T09:07:42.228Z,96.80
2022-11-21T09:12:41.961Z,96.66
2022-11-21T09:17:41.908Z,95.92
2022-11-21T09:22:41.838Z,95.44
2022-11-21T09:27:41.775Z,96.38
2022-11-21T09:32:41.750Z,96.59
2022-11-21T09:37:41.813Z,96.91
2022-11-21T09:42:42.422Z,96.70
2022-11-21T09:47:41.606Z,97.28
2022-11-21T09:52:41.596Z,96.34
2022-11-21T09:57:41.364Z,96.44
2022-11-21T10:02:41.317Z,96.66
2022-11-21T10:07:41.310Z,96.97
2022-11-21T10:12:41.190Z,96.34
2022-11-21T10:17:41.102Z,95.82
2022-11-21T10:22:41.062Z,95.67
2022-11-21T10:27:41.053Z,95.15
2022-11-21T10:32:40.914Z,94.31
2022-11-21T10:37:40.863Z,94.21
2022-11-21T10:42:40.819Z,94.69
2022-11-21T10:47:40.805Z,93.96
2022-11-21T10:52:40.728Z,93.71
2022-11-21T10:57:40.598Z,92.97
2022-11-21T11:02:40.609Z,93.14
2022-11-21T11:07:40.550Z,91.64
2022-11-21T11:12:40.478Z,90.91
2022-11-21T11:17:40.471Z,91.58
2022-11-21T11:22:40.521Z,91.06
2022-11-21T11:27:40.261Z,90.70
2022-11-21T11:32:40.175Z,90.25
2022-11-21T11:37:41.328Z,90.04
2022-11-21T11:42:40.038Z,89.83
2022-11-21T11:47:39.929Z,90.16
2022-11-21T11:52:39.933Z,88.81
2022-11-21T11:57:39.837Z,88.04
2022-11-21T12:02:39.908Z,86.42
2022-11-21T12:08:39.518Z,87.88
2022-11-21T12:12:41.611Z,88.71
2022-11-21T12:17:40.581Z,89.02
2022-11-21T12:22:40.478Z,88.46
2022-11-21T12:27:39.469Z,87.79
2022-11-21T12:32:39.368Z,86.03
2022-11-21T12:37:39.350Z,88.46
2022-11-21T12:42:39.286Z,87.66
2022-11-21T12:47:39.204Z,88.04
2022-11-21T12:52:39.230Z,88.35
2022-11-21T12:57:39.056Z,88.52
2022-11-21T13:02:38.994Z,88.21
2022-11-21T13:07:38.985Z,87.52
2022-11-21T13:12:38.887Z,88.25
2022-11-21T13:17:38.765Z,89.15
2022-11-21T13:22:38.717Z,88.31
2022-11-21T13:27:39.462Z,87.59
2022-11-21T13:32:38.631Z,86.96
2022-11-21T13:37:38.595Z,86.96
2022-11-21T13:42:38.514Z,86.76
2022-11-21T13:47:43.942Z,88.00
2022-11-21T13:52:39.414Z,88.42
2022-11-21T13:57:38.259Z,87.79
2022-11-21T14:02:38.244Z,87.94
2022-11-21T14:07:38.231Z,88.56
2022-11-21T14:12:44.048Z,87.42
2022-11-21T14:17:39.019Z,88.60
2022-11-21T14:22:42.412Z,89.37
2022-11-21T14:27:44.933Z,90.72
2022-11-21T14:32:38.826Z,90.06
2022-11-21T14:37:37.757Z,90.69
2022-11-21T14:42:37.759Z,90.47
2022-11-21T14:47:37.650Z,91.10
2022-11-21T14:52:37.588Z,90.69
2022-11-21T14:57:37.498Z,91.04
2022-11-21T15:02:37.469Z,91.87
2022-11-21T15:07:37.445Z,91.35
2022-11-21T15:12:39.424Z,92.12
2022-11-21T15:17:37.233Z,92.54
2022-11-21T15:22:37.189Z,93.20
2022-11-21T15:27:37.116Z,93.41
2022-11-21T15:32:37.095Z,93.87
2022-11-21T15:37:37.010Z,94.08
2022-11-21T15:42:36.917Z,94.39
2022-11-21T15:47:36.885Z,94.70
2022-11-21T15:52:36.821Z,94.49
2022-11-21T15:57:36.781Z,94.75
2022-11-21T16:02:36.664Z,94.85
2022-11-21T16:07:36.641Z,95.02
2022-11-21T16:12:36.583Z,95.02
2022-11-21T16:17:36.463Z,95.17
2022-11-21T16:22:36.421Z,95.43
2022-11-21T16:27:36.322Z,95.02
2022-11-21T16:32:36.277Z,95.02
2022-11-21T16:37:36.222Z,94.60
2022-11-21T16:42:36.207Z,94.39
2022-11-21T16:47:36.124Z,94.81
2022-11-21T16:52:36.005Z,95.02
2022-11-21T16:57:35.981Z,94.70
2022-11-21T17:02:35.899Z,94.70
2022-11-21T17:07:35.888Z,94.49
2022-11-21T17:12:35.846Z,94.81
2022-11-21T17:17:35.682Z,94.66
2022-11-21T17:22:35.637Z,94.24
2022-11-21T17:27:35.644Z,94.14
2022-11-21T17:32:35.578Z,93.73
2022-11-21T17:37:35.442Z,94.04
2022-11-21T17:42:35.448Z,93.79
2022-11-21T17:47:35.344Z,93.68
2022-11-21T17:52:35.376Z,93.68
2022-11-21T17:57:35.171Z,93.58
2022-11-21T18:02:35.253Z,93.16
2022-11-21T18:07:35.127Z,98.63
2022-11-21T18:12:35.070Z,99.99
2022-11-21T18:17:34.966Z,99.99
2022-11-21T18:22:34.888Z,89.73
2022-11-21T18:27:34.818Z,89.27
2022-11-21T18:32:34.791Z,90.50
2022-11-21T18:37:34.731Z,92.93
2022-11-21T18:42:34.655Z,91.93
2022-11-21T18:47:34.736Z,91.53
2022-11-21T18:52:34.452Z,93.56
2022-11-21T18:57:34.406Z,94.17
2022-11-21T19:02:34.332Z,95.36
2022-11-21T19:07:34.310Z,96.09
2022-11-21T19:12:39.292Z,96.38
2022-11-21T19:17:35.273Z,97.95
2022-11-21T19:22:34.157Z,98.58
2022-11-21T19:27:34.024Z,98.72
2022-11-21T19:32:34.022Z,99.19
2022-11-21T19:37:33.929Z,99.99
2022-11-21T19:42:33.853Z,99.99
2022-11-21T19:47:33.759Z,99.99
2022-11-21T19:52:33.712Z,99.99
2022-11-21T19:57:33.649Z,99.99
2022-11-21T20:02:33.825Z,99.99
2022-11-21T20:07:33.607Z,99.99
2022-11-21T20:12:33.492Z,99.99
2022-11-21T20:17:33.461Z,99.99
2022-11-21T20:22:33.333Z,99.99
2022-11-21T20:27:33.315Z,99.16
2022-11-21T20:32:33.248Z,98.74
2022-11-21T20:37:33.194Z,98.49
2022-11-21T20:42:33.058Z,98.22
2022-11-21T20:47:33.068Z,98.43
2022-11-21T20:57:33.891Z,98.32
2022-11-21T21:02:32.829Z,98.07
2022-11-21T21:07:32.806Z,97.86
2022-11-21T21:12:32.644Z,97.91
2022-11-21T21:17:32.578Z,98.01
2022-11-21T21:22:32.524Z,98.07
2022-11-21T21:27:32.548Z,97.75
2022-11-21T21:32:32.392Z,97.55
2022-11-21T21:37:32.352Z,97.55
2022-11-21T21:42:32.252Z,97.55
2022-11-21T21:47:32.227Z,97.75
2022-11-21T21:52:32.197Z,97.19
2022-11-21T21:57:32.083Z,97.25
2022-11-21T22:02:32.009Z,97.04
2022-11-21T22:07:32.058Z,96.83
2022-11-21T22:12:31.877Z,96.62
2022-11-21T22:17:31.846Z,96.62
2022-11-21T22:22:32.883Z,96.83
2022-11-21T22:27:31.686Z,96.94
2022-11-21T22:32:31.712Z,96.94
2022-11-21T22:37:31.670Z,97.25
2022-11-21T22:42:31.576Z,97.25
2022-11-21T22:47:31.481Z,97.30
2022-11-21T22:52:31.460Z,97.56
2022-11-21T22:57:31.361Z,97.56
2022-11-21T23:02:31.335Z,97.41
2022-11-21T23:07:31.300Z,97.10
2022-11-21T23:12:31.119Z,96.91
2022-11-21T23:17:31.121Z,96.09
2022-11-21T23:22:31.030Z,95.32
2022-11-21T23:27:30.921Z,95.11
2022-11-21T23:32:30.882Z,94.45
2022-11-21T23:37:30.821Z,94.34
2022-11-21T23:42:30.755Z,94.03
2022-11-21T23:47:30.667Z,93.93
2022-11-21T23:52:30.633Z,93.76
2022-11-21T23:57:30.646Z,94.18
